2CUTH EGNR-ZZZZ

Flight info

Callsign 2CUTH
Flight time N/A
Altitude 3500
Route VFR
Aircraft DA62/L-SBDFGRY/S

Departure

Time 2026-04-26 11:26
Airport Hawarden Airport (EGNR)

Arrival

Time N/A
Airport ZZZZ
Time Latitude Longitude Altitude Speed Heading
2026-04-26 11:20 53.18520 -2.97436 20 ft 0 kts 122°
2026-04-26 11:22 53.18524 -2.97423 20 ft 5 kts 14°
2026-04-26 11:23 53.18555 -2.97472 20 ft 8 kts 309°
2026-04-26 11:23 53.18596 -2.97575 20 ft 13 kts 267°
2026-04-26 11:23 53.18568 -2.97717 21 ft 12 kts 252°
2026-04-26 11:23 53.18526 -2.97690 21 ft 13 kts 108°
2026-04-26 11:24 53.18483 -2.97485 21 ft 19 kts 114°
2026-04-26 11:24 53.18456 -2.97299 20 ft 15 kts 83°
2026-04-26 11:24 53.18482 -2.97126 19 ft 16 kts 78°
2026-04-26 11:24 53.18505 -2.96976 18 ft 10 kts 75°
2026-04-26 11:25 53.18514 -2.96881 18 ft 8 kts 100°
2026-04-26 11:25 53.18495 -2.96791 17 ft 8 kts 173°
2026-04-26 11:25 53.18406 -2.96907 19 ft 39 kts 218°
2026-04-26 11:25 53.18067 -2.97423 79 ft 83 kts 216°
2026-04-26 11:26 53.17565 -2.98064 278 ft 98 kts 211°
2026-04-26 11:26 53.16999 -2.98753 641 ft 102 kts 213°
2026-04-26 11:26 53.16352 -2.98976 1043 ft 102 kts 153°
2026-04-26 11:26 53.16067 -2.97947 1346 ft 109 kts 86°
2026-04-26 11:27 53.16121 -2.96671 1761 ft 112 kts 88°
2026-04-26 11:27 53.16181 -2.95368 2100 ft 114 kts 88°
2026-04-26 11:27 53.16223 -2.93975 2351 ft 135 kts 88°
2026-04-26 11:27 53.16281 -2.92333 2318 ft 148 kts 89°
2026-04-26 11:28 53.16350 -2.90518 2298 ft 159 kts 87°
2026-04-26 11:28 53.16425 -2.88599 2248 ft 171 kts 87°
2026-04-26 11:28 53.16878 -2.86890 2305 ft 162 kts 49°
2026-04-26 11:28 53.17669 -2.85498 2250 ft 163 kts 47°
2026-04-26 11:29 53.18433 -2.84175 2260 ft 156 kts 45°
2026-04-26 11:29 53.19048 -2.82762 2284 ft 150 kts 78°
2026-04-26 11:29 53.18875 -2.81144 2261 ft 144 kts 127°
2026-04-26 11:29 53.18107 -2.80234 2288 ft 136 kts 173°
2026-04-26 11:30 53.17131 -2.80038 2254 ft 142 kts 175°
2026-04-26 11:30 53.16474 -2.79904 2293 ft 141 kts 176°
2026-04-26 11:30 53.15160 -2.79662 2255 ft 140 kts 176°
2026-04-26 11:30 53.14199 -2.79497 2288 ft 144 kts 176°
2026-04-26 11:31 53.13189 -2.79316 2254 ft 144 kts 176°
2026-04-26 11:31 53.12214 -2.79145 2257 ft 139 kts 176°
2026-04-26 11:31 53.11255 -2.78971 2264 ft 137 kts 176°
2026-04-26 11:31 53.10307 -2.78812 2331 ft 138 kts 176°
2026-04-26 11:32 53.09316 -2.78634 2505 ft 146 kts 176°
2026-04-26 11:32 53.08331 -2.78996 2652 ft 149 kts 202°
2026-04-26 11:32 53.07325 -2.79611 2786 ft 156 kts 201°
2026-04-26 11:32 53.06312 -2.80242 2919 ft 155 kts 202°
2026-04-26 11:33 53.05319 -2.80855 3059 ft 155 kts 201°
2026-04-26 11:33 53.04304 -2.81511 3220 ft 157 kts 207°
2026-04-26 11:33 53.03330 -2.82375 3257 ft 157 kts 210°
2026-04-26 11:33 53.02367 -2.83212 3261 ft 156 kts 208°
2026-04-26 11:34 53.01392 -2.84019 3267 ft 157 kts 208°
2026-04-26 11:34 53.00412 -2.84832 3279 ft 156 kts 207°
2026-04-26 11:34 52.99419 -2.85652 3290 ft 166 kts 207°
2026-04-26 11:34 52.98399 -2.86486 3294 ft 160 kts 206°
2026-04-26 11:35 52.97395 -2.87312 3318 ft 159 kts 208°
2026-04-26 11:35 52.96405 -2.88133 3308 ft 157 kts 207°
2026-04-26 11:35 52.95430 -2.88938 3317 ft 156 kts 208°
2026-04-26 11:35 52.94788 -2.89465 3306 ft 155 kts 206°
2026-04-26 11:36 52.93511 -2.90509 3313 ft 155 kts 207°
2026-04-26 11:36 52.92542 -2.91310 3281 ft 160 kts 207°
2026-04-26 11:36 52.91552 -2.92110 3322 ft 160 kts 207°
2026-04-26 11:36 52.90530 -2.92952 3298 ft 162 kts 207°
2026-04-26 11:37 52.89518 -2.93794 3311 ft 164 kts 208°
2026-04-26 11:37 52.88506 -2.94622 3330 ft 161 kts 205°
2026-04-26 11:37 52.87483 -2.95448 3304 ft 161 kts 207°
2026-04-26 11:37 52.86470 -2.96276 3299 ft 161 kts 207°
2026-04-26 11:38 52.85481 -2.97091 3299 ft 157 kts 207°
2026-04-26 11:38 52.84499 -2.97892 3333 ft 161 kts 207°
2026-04-26 11:38 52.83492 -2.98720 3313 ft 163 kts 207°
2026-04-26 11:38 52.82486 -2.99535 3303 ft 159 kts 207°
2026-04-26 11:39 52.81500 -3.00350 3304 ft 157 kts 206°
2026-04-26 11:39 52.80506 -3.01155 3289 ft 164 kts 207°
2026-04-26 11:39 52.79505 -3.01974 3287 ft 157 kts 207°
2026-04-26 11:39 52.78507 -3.02788 3284 ft 162 kts 204°
2026-04-26 11:40 52.77492 -3.03608 3282 ft 158 kts 207°
2026-04-26 11:40 52.76475 -3.04185 3299 ft 158 kts 180°
2026-04-26 11:40 52.75435 -3.03580 3285 ft 159 kts 153°
2026-04-26 11:40 52.74476 -3.02726 3284 ft 155 kts 155°
2026-04-26 11:41 52.73517 -3.01956 3284 ft 152 kts 156°
2026-04-26 11:42 52.66597 -2.96708 3298 ft 160 kts 157°
2026-04-26 11:43 52.65565 -2.95922 3286 ft 163 kts 157°
2026-04-26 11:43 52.64545 -2.95168 3289 ft 158 kts 157°
2026-04-26 11:43 52.63541 -2.94396 3310 ft 166 kts 158°
2026-04-26 11:43 52.62497 -2.93620 3287 ft 160 kts 158°
2026-04-26 11:44 52.61506 -2.92853 3337 ft 158 kts 156°
2026-04-26 11:44 52.60496 -2.92106 3297 ft 159 kts 158°
2026-04-26 11:44 52.59496 -2.91361 3286 ft 159 kts 158°
2026-04-26 11:44 52.58509 -2.90614 3286 ft 154 kts 158°
2026-04-26 11:45 52.57539 -2.89879 3298 ft 153 kts 158°
2026-04-26 11:45 52.56563 -2.89156 3296 ft 154 kts 161°
2026-04-26 11:45 52.55515 -2.88559 3284 ft 161 kts 162°
2026-04-26 11:45 52.54486 -2.87904 3320 ft 158 kts 162°
2026-04-26 11:46 52.53462 -2.87271 3291 ft 155 kts 161°
2026-04-26 11:46 52.52456 -2.86648 3288 ft 152 kts 162°
2026-04-26 11:46 52.51468 -2.86045 3331 ft 153 kts 162°
2026-04-26 11:46 52.50453 -2.85441 3295 ft 153 kts 160°
2026-04-26 11:47 52.49493 -2.84831 3298 ft 147 kts 161°
2026-04-26 11:47 52.48520 -2.84240 3301 ft 153 kts 161°
2026-04-26 11:47 52.47501 -2.83623 3302 ft 156 kts 162°
2026-04-26 11:47 52.46488 -2.83005 3297 ft 155 kts 161°
2026-04-26 11:48 52.45478 -2.82384 3297 ft 155 kts 162°
2026-04-26 11:48 52.44465 -2.81774 3301 ft 156 kts 161°
2026-04-26 11:48 52.43449 -2.81155 3292 ft 154 kts 161°
2026-04-26 11:48 52.42453 -2.80543 3301 ft 153 kts 161°
2026-04-26 11:49 52.41454 -2.79938 3296 ft 153 kts 162°
2026-04-26 11:49 52.40459 -2.79331 3291 ft 152 kts 161°
2026-04-26 11:49 52.39477 -2.78735 3296 ft 152 kts 162°
2026-04-26 11:49 52.38481 -2.78136 3282 ft 153 kts 161°
2026-04-26 11:50 52.37490 -2.77526 3303 ft 152 kts 160°
2026-04-26 11:50 52.36464 -2.76908 3291 ft 163 kts 161°
2026-04-26 11:50 52.35430 -2.76276 3291 ft 155 kts 161°
2026-04-26 11:50 52.34434 -2.75675 3298 ft 151 kts 161°
2026-04-26 11:51 52.33448 -2.75076 3301 ft 149 kts 162°
2026-04-26 11:51 52.32458 -2.74481 3300 ft 155 kts 161°
2026-04-26 11:51 52.31440 -2.73859 3304 ft 156 kts 161°
2026-04-26 11:51 52.30433 -2.73245 3292 ft 152 kts 160°
2026-04-26 11:52 52.29468 -2.72668 3305 ft 149 kts 162°
2026-04-26 11:52 52.28813 -2.72274 3291 ft 146 kts 161°
2026-04-26 11:52 52.27537 -2.71501 3305 ft 148 kts 161°
2026-04-26 11:52 52.26560 -2.70903 3299 ft 149 kts 161°
2026-04-26 11:53 52.25579 -2.70319 3297 ft 150 kts 162°
2026-04-26 11:53 52.24617 -2.69744 3305 ft 148 kts 162°
2026-04-26 11:53 52.23646 -2.69151 3318 ft 149 kts 161°
2026-04-26 11:54 52.22035 -2.68173 3313 ft 151 kts 161°
2026-04-26 11:54 52.20707 -2.67382 3292 ft 155 kts 162°
2026-04-26 11:54 52.20024 -2.66969 3308 ft 156 kts 160°
2026-04-26 11:54 52.19008 -2.66359 3301 ft 157 kts 162°
2026-04-26 11:55 52.17984 -2.65736 3292 ft 158 kts 161°
2026-04-26 11:55 52.16950 -2.65122 3301 ft 158 kts 161°
2026-04-26 11:55 52.15932 -2.64500 3287 ft 157 kts 161°
2026-04-26 11:55 52.14922 -2.63894 3313 ft 154 kts 161°
2026-04-26 11:56 52.13929 -2.63298 3300 ft 149 kts 161°
2026-04-26 11:56 52.12946 -2.62709 3314 ft 153 kts 160°
2026-04-26 11:56 52.11960 -2.62121 3300 ft 146 kts 161°
2026-04-26 11:56 52.11041 -2.61567 3281 ft 137 kts 161°
2026-04-26 11:57 52.10182 -2.61059 3241 ft 130 kts 162°
2026-04-26 11:57 52.09318 -2.60534 3105 ft 138 kts 161°
2026-04-26 11:57 52.08420 -2.59997 2905 ft 135 kts 161°
2026-04-26 11:57 52.07508 -2.59456 2728 ft 149 kts 160°
2026-04-26 11:58 52.06540 -2.58886 2514 ft 140 kts 161°
2026-04-26 11:58 52.05684 -2.58356 2336 ft 121 kts 161°
2026-04-26 11:58 52.04955 -2.57923 2224 ft 107 kts 160°
2026-04-26 11:58 52.04264 -2.57510 2100 ft 104 kts 160°
2026-04-26 11:59 52.03578 -2.57103 1970 ft 108 kts 160°
2026-04-26 11:59 52.02854 -2.56671 1831 ft 113 kts 160°
2026-04-26 11:59 52.02141 -2.56255 1640 ft 109 kts 159°
2026-04-26 11:59 52.01429 -2.55821 1490 ft 107 kts 160°
2026-04-26 12:00 52.00756 -2.55421 1392 ft 105 kts 160°
2026-04-26 12:00 52.00087 -2.55016 1253 ft 102 kts 160°
2026-04-26 12:00 51.99410 -2.54603 1116 ft 106 kts 156°
2026-04-26 12:00 51.98902 -2.53815 969 ft 95 kts 120°
2026-04-26 12:01 51.98778 -2.52866 857 ft 88 kts 78°
2026-04-26 12:01 51.98935 -2.51906 772 ft 87 kts 74°
2026-04-26 12:01 51.99202 -2.50999 679 ft 89 kts 58°
2026-04-26 12:01 51.99479 -2.50139 566 ft 84 kts 70°
2026-04-26 12:02 51.99691 -2.49239 397 ft 86 kts 68°
2026-04-26 12:02 51.99928 -2.48354 220 ft 85 kts 66°
2026-04-26 12:02 52.00149 -2.47561 141 ft 62 kts 66°
2026-04-26 12:02 52.00221 -2.47304 140 ft 4 kts 112°
2026-04-26 12:03 52.00209 -2.47331 140 ft 5 kts 257°
2026-04-26 12:03 52.00207 -2.47343 140 ft 4 kts 257°
2026-04-26 12:03 52.00235 -2.47386 141 ft 7 kts 276°
2026-04-26 12:03 52.00232 -2.47394 141 ft 0 kts 204°